Página principal
METAR-TAF:

METAR-TAF

Aeroportos :

Aeroporto de Sydney

Sydney, Austrália

latitude: 33-57S, longitude: 151-11E, altura: 6 m

Observação actual do tempo

O boletim foi feito há 35 minutos, às 13:00 UTC
Vento 14 kt de su-sudeste
Temperatura 18°C
Humidade 77%
Pressão 1022 hPa
Visibilidade 10 km ou mais
Nuvens fragmentadasa uma altura de 3000 ft

METAR: YSSY 171300Z 15014KT 9999 BKN030 18/14 Q1022 NOSIG

Hora: 00:35 (13:35 UTC)

Previsão

O boletim foi feito há 2 horas e 30 minutos, às 11:05 UTC
Previsão válida de 17 às 12 UTC a 18 às 18 UTC
Vento 10 kt de sudeste
Visibilidade 10 km ou mais
Nuvens dispersasa uma altura de 3000 ft
A partir de 18 às 0000 UTC
Vento 10 kt de es-sudeste
Visibilidade 10 km ou mais
Nuvens dispersasa uma altura de 3500 ft

TAF: YSSY 171105Z 1712/1818 13010KT 9999 SCT030 FM180000 12010KT 9999 SCT035

Observações e previsões do tempo de mais de 4000 aeroportos (mensagens METAR e TAF).

As estações disponíveis são os pontos amarelos e vermelhos sobre o mapa.

Mova o rato sobre o mapa para ver o nome da estação.

Depois clique no ponto para visualizar as observações e previsões meteorológicas.

Para alterar o mapa : clique nos botões verdes com uma cruz preta para aumentar o zoom; no botão verde com uma pitada de zoom; ou nas setas verdes para mapas adjacentes.


METAR-TAF: